sensor_id;sensor_type;location;lat;lon;timestamp;temperature;humidity
56046;DHT22;41913;51.030;3.706;2023-09-19T00:01:12;22.70;77.80
56046;DHT22;41913;51.030;3.706;2023-09-19T00:03:40;22.70;77.80
56046;DHT22;41913;51.030;3.706;2023-09-19T00:06:07;22.70;77.70
56046;DHT22;41913;51.030;3.706;2023-09-19T00:08:36;22.70;77.70
56046;DHT22;41913;51.030;3.706;2023-09-19T00:11:02;22.70;77.80
56046;DHT22;41913;51.030;3.706;2023-09-19T00:13:31;22.70;77.80
56046;DHT22;41913;51.030;3.706;2023-09-19T00:15:57;22.70;77.80
56046;DHT22;41913;51.030;3.706;2023-09-19T00:18:25;22.70;77.90
56046;DHT22;41913;51.030;3.706;2023-09-19T00:20:58;22.70;77.90
56046;DHT22;41913;51.030;3.706;2023-09-19T00:23:25;22.70;78.10
56046;DHT22;41913;51.030;3.706;2023-09-19T00:25:51;22.70;78.20
56046;DHT22;41913;51.030;3.706;2023-09-19T00:28:17;22.70;78.20
56046;DHT22;41913;51.030;3.706;2023-09-19T00:30:44;22.70;78.30
56046;DHT22;41913;51.030;3.706;2023-09-19T00:33:10;22.70;78.30
56046;DHT22;41913;51.030;3.706;2023-09-19T00:35:37;22.70;78.40
56046;DHT22;41913;51.030;3.706;2023-09-19T00:38:03;22.70;78.50
56046;DHT22;41913;51.030;3.706;2023-09-19T00:40:29;22.70;78.60
56046;DHT22;41913;51.030;3.706;2023-09-19T00:42:57;22.70;78.60
56046;DHT22;41913;51.030;3.706;2023-09-19T00:45:26;22.70;78.60
56046;DHT22;41913;51.030;3.706;2023-09-19T00:47:54;22.70;78.70
56046;DHT22;41913;51.030;3.706;2023-09-19T00:50:24;22.70;78.90
56046;DHT22;41913;51.030;3.706;2023-09-19T00:52:54;22.70;79.00
56046;DHT22;41913;51.030;3.706;2023-09-19T00:55:25;22.80;79.30
56046;DHT22;41913;51.030;3.706;2023-09-19T00:57:52;22.80;79.50
56046;DHT22;41913;51.030;3.706;2023-09-19T01:00:18;22.80;79.70
56046;DHT22;41913;51.030;3.706;2023-09-19T01:02:46;22.80;79.90
56046;DHT22;41913;51.030;3.706;2023-09-19T01:05:12;22.80;79.90
56046;DHT22;41913;51.030;3.706;2023-09-19T01:07:38;22.80;80.00
56046;DHT22;41913;51.030;3.706;2023-09-19T01:10:08;22.90;80.20
56046;DHT22;41913;51.030;3.706;2023-09-19T01:12:55;22.90;80.20
56046;DHT22;41913;51.030;3.706;2023-09-19T01:20:54;22.90;80.30
56046;DHT22;41913;51.030;3.706;2023-09-19T01:32:01;23.00;80.50
56046;DHT22;41913;51.030;3.706;2023-09-19T01:37:16;22.90;80.60
56046;DHT22;41913;51.030;3.706;2023-09-19T01:39:50;23.00;80.60
56046;DHT22;41913;51.030;3.706;2023-09-19T01:47:56;23.00;80.70
56046;DHT22;41913;51.030;3.706;2023-09-19T01:50:38;23.00;80.70
56046;DHT22;41913;51.030;3.706;2023-09-19T01:53:27;23.00;80.70
56046;DHT22;41913;51.030;3.706;2023-09-19T01:55:57;23.00;80.80
56046;DHT22;41913;51.030;3.706;2023-09-19T01:58:34;23.10;80.80
56046;DHT22;41913;51.030;3.706;2023-09-19T02:01:01;23.10;80.90
56046;DHT22;41913;51.030;3.706;2023-09-19T02:03:29;23.00;80.90
56046;DHT22;41913;51.030;3.706;2023-09-19T02:05:56;23.10;81.00
56046;DHT22;41913;51.030;3.706;2023-09-19T02:08:22;23.10;81.00
56046;DHT22;41913;51.030;3.706;2023-09-19T02:10:52;23.10;81.00
56046;DHT22;41913;51.030;3.706;2023-09-19T02:13:21;23.10;80.90
56046;DHT22;41913;51.030;3.706;2023-09-19T02:15:47;23.10;80.90
56046;DHT22;41913;51.030;3.706;2023-09-19T02:18:13;23.10;80.90
56046;DHT22;41913;51.030;3.706;2023-09-19T02:20:41;23.10;80.90
56046;DHT22;41913;51.030;3.706;2023-09-19T02:23:07;23.10;80.90
56046;DHT22;41913;51.030;3.706;2023-09-19T02:25:34;23.10;80.90
56046;DHT22;41913;51.030;3.706;2023-09-19T02:28:01;23.10;80.90
56046;DHT22;41913;51.030;3.706;2023-09-19T02:30:28;23.10;81.10
56046;DHT22;41913;51.030;3.706;2023-09-19T02:32:55;23.10;80.90
56046;DHT22;41913;51.030;3.706;2023-09-19T02:35:21;23.10;80.80
56046;DHT22;41913;51.030;3.706;2023-09-19T02:37:47;23.20;80.80
56046;DHT22;41913;51.030;3.706;2023-09-19T02:40:13;23.10;80.80
56046;DHT22;41913;51.030;3.706;2023-09-19T02:42:46;23.10;80.80
56046;DHT22;41913;51.030;3.706;2023-09-19T02:45:18;23.10;80.70
56046;DHT22;41913;51.030;3.706;2023-09-19T02:47:45;23.20;80.70
56046;DHT22;41913;51.030;3.706;2023-09-19T02:50:11;23.10;80.60
56046;DHT22;41913;51.030;3.706;2023-09-19T02:52:38;23.20;80.60
56046;DHT22;41913;51.030;3.706;2023-09-19T02:55:05;23.20;80.60
56046;DHT22;41913;51.030;3.706;2023-09-19T02:57:35;23.20;80.60
56046;DHT22;41913;51.030;3.706;2023-09-19T03:00:09;23.20;80.60
56046;DHT22;41913;51.030;3.706;2023-09-19T03:02:37;23.20;80.60
56046;DHT22;41913;51.030;3.706;2023-09-19T03:05:05;23.20;80.60
56046;DHT22;41913;51.030;3.706;2023-09-19T03:07:32;23.20;80.60
56046;DHT22;41913;51.030;3.706;2023-09-19T03:09:57;23.20;80.60
56046;DHT22;41913;51.030;3.706;2023-09-19T03:12:23;23.20;80.60
56046;DHT22;41913;51.030;3.706;2023-09-19T03:14:50;23.20;80.60
56046;DHT22;41913;51.030;3.706;2023-09-19T03:17:16;23.20;80.70
56046;DHT22;41913;51.030;3.706;2023-09-19T03:19:41;23.20;80.70
56046;DHT22;41913;51.030;3.706;2023-09-19T03:22:07;23.20;80.70
56046;DHT22;41913;51.030;3.706;2023-09-19T03:24:33;23.20;80.70
56046;DHT22;41913;51.030;3.706;2023-09-19T03:27:01;23.20;80.80
56046;DHT22;41913;51.030;3.706;2023-09-19T03:29:26;23.20;80.80
56046;DHT22;41913;51.030;3.706;2023-09-19T03:31:52;23.20;80.80
56046;DHT22;41913;51.030;3.706;2023-09-19T03:34:20;23.20;80.90
56046;DHT22;41913;51.030;3.706;2023-09-19T03:36:47;23.20;81.00
56046;DHT22;41913;51.030;3.706;2023-09-19T03:39:12;23.20;81.00
56046;DHT22;41913;51.030;3.706;2023-09-19T03:41:41;23.20;81.10
56046;DHT22;41913;51.030;3.706;2023-09-19T03:44:08;23.20;81.10
56046;DHT22;41913;51.030;3.706;2023-09-19T03:46:35;23.20;81.10
56046;DHT22;41913;51.030;3.706;2023-09-19T03:49:01;23.20;81.10
56046;DHT22;41913;51.030;3.706;2023-09-19T03:51:28;23.20;81.20
56046;DHT22;41913;51.030;3.706;2023-09-19T03:53:53;23.20;81.20
56046;DHT22;41913;51.030;3.706;2023-09-19T03:56:19;23.20;81.20
56046;DHT22;41913;51.030;3.706;2023-09-19T03:58:45;23.20;81.30
56046;DHT22;41913;51.030;3.706;2023-09-19T04:01:10;23.20;81.30
56046;DHT22;41913;51.030;3.706;2023-09-19T04:03:38;23.20;81.30
56046;DHT22;41913;51.030;3.706;2023-09-19T04:06:16;23.20;81.30
56046;DHT22;41913;51.030;3.706;2023-09-19T04:08:42;23.20;81.40
56046;DHT22;41913;51.030;3.706;2023-09-19T04:11:09;23.20;81.40
56046;DHT22;41913;51.030;3.706;2023-09-19T04:13:35;23.20;81.40
56046;DHT22;41913;51.030;3.706;2023-09-19T04:16:03;23.20;81.90
56046;DHT22;41913;51.030;3.706;2023-09-19T04:18:34;23.20;81.40
56046;DHT22;41913;51.030;3.706;2023-09-19T04:21:03;23.20;81.40
56046;DHT22;41913;51.030;3.706;2023-09-19T04:23:32;23.20;81.40
56046;DHT22;41913;51.030;3.706;2023-09-19T04:25:58;23.20;81.40
56046;DHT22;41913;51.030;3.706;2023-09-19T04:28:24;23.20;81.40
56046;DHT22;41913;51.030;3.706;2023-09-19T04:30:50;23.20;81.40
56046;DHT22;41913;51.030;3.706;2023-09-19T04:33:16;23.20;81.40
56046;DHT22;41913;51.030;3.706;2023-09-19T04:35:41;23.20;81.40
56046;DHT22;41913;51.030;3.706;2023-09-19T04:38:08;23.20;81.40
56046;DHT22;41913;51.030;3.706;2023-09-19T04:40:34;23.20;81.40
56046;DHT22;41913;51.030;3.706;2023-09-19T04:43:00;23.20;81.40
56046;DHT22;41913;51.030;3.706;2023-09-19T04:45:27;23.20;81.40
56046;DHT22;41913;51.030;3.706;2023-09-19T04:47:53;23.20;81.40
56046;DHT22;41913;51.030;3.706;2023-09-19T04:50:19;23.20;81.40
56046;DHT22;41913;51.030;3.706;2023-09-19T04:52:50;23.20;81.40
56046;DHT22;41913;51.030;3.706;2023-09-19T04:55:17;23.20;81.40
56046;DHT22;41913;51.030;3.706;2023-09-19T04:57:48;23.20;81.40
56046;DHT22;41913;51.030;3.706;2023-09-19T05:00:18;23.20;81.40
56046;DHT22;41913;51.030;3.706;2023-09-19T05:02:45;23.20;81.50
56046;DHT22;41913;51.030;3.706;2023-09-19T05:05:11;23.20;81.50
56046;DHT22;41913;51.030;3.706;2023-09-19T05:07:45;23.20;81.40
56046;DHT22;41913;51.030;3.706;2023-09-19T05:10:10;23.20;81.40
56046;DHT22;41913;51.030;3.706;2023-09-19T05:12:37;23.20;81.50
56046;DHT22;41913;51.030;3.706;2023-09-19T05:15:04;23.20;81.50
56046;DHT22;41913;51.030;3.706;2023-09-19T05:17:30;23.20;81.50
56046;DHT22;41913;51.030;3.706;2023-09-19T05:19:57;23.20;81.50
56046;DHT22;41913;51.030;3.706;2023-09-19T05:23:01;23.30;81.50
56046;DHT22;41913;51.030;3.706;2023-09-19T05:25:37;23.30;81.50
56046;DHT22;41913;51.030;3.706;2023-09-19T05:28:08;23.30;81.40
56046;DHT22;41913;51.030;3.706;2023-09-19T05:30:35;23.30;81.30
56046;DHT22;41913;51.030;3.706;2023-09-19T05:33:02;23.30;81.30
56046;DHT22;41913;51.030;3.706;2023-09-19T05:35:30;23.20;81.10
56046;DHT22;41913;51.030;3.706;2023-09-19T05:37:56;23.10;81.20
56046;DHT22;41913;51.030;3.706;2023-09-19T05:40:24;23.10;81.40
56046;DHT22;41913;51.030;3.706;2023-09-19T05:42:50;23.00;81.50
56046;DHT22;41913;51.030;3.706;2023-09-19T05:45:16;22.90;81.30
56046;DHT22;41913;51.030;3.706;2023-09-19T05:47:51;22.80;81.40
56046;DHT22;41913;51.030;3.706;2023-09-19T05:50:21;22.80;81.40
56046;DHT22;41913;51.030;3.706;2023-09-19T05:52:53;22.70;81.50
56046;DHT22;41913;51.030;3.706;2023-09-19T05:55:19;22.60;81.70
56046;DHT22;41913;51.030;3.706;2023-09-19T05:57:50;22.50;81.70
56046;DHT22;41913;51.030;3.706;2023-09-19T06:00:20;22.50;82.40
56046;DHT22;41913;51.030;3.706;2023-09-19T06:02:50;22.40;82.00
56046;DHT22;41913;51.030;3.706;2023-09-19T06:05:16;22.40;82.10
56046;DHT22;41913;51.030;3.706;2023-09-19T06:07:41;22.30;82.30
56046;DHT22;41913;51.030;3.706;2023-09-19T06:10:07;22.30;82.50
56046;DHT22;41913;51.030;3.706;2023-09-19T06:12:41;22.20;82.60
56046;DHT22;41913;51.030;3.706;2023-09-19T06:15:10;22.20;82.80
56046;DHT22;41913;51.030;3.706;2023-09-19T06:17:50;22.10;82.90
56046;DHT22;41913;51.030;3.706;2023-09-19T06:20:16;22.10;83.00
56046;DHT22;41913;51.030;3.706;2023-09-19T06:22:44;22.10;83.10
56046;DHT22;41913;51.030;3.706;2023-09-19T06:25:12;22.00;83.20
56046;DHT22;41913;51.030;3.706;2023-09-19T06:27:41;22.00;83.50
56046;DHT22;41913;51.030;3.706;2023-09-19T06:30:09;21.90;83.60
56046;DHT22;41913;51.030;3.706;2023-09-19T06:32:35;21.90;83.60
56046;DHT22;41913;51.030;3.706;2023-09-19T06:35:01;21.90;83.70
56046;DHT22;41913;51.030;3.706;2023-09-19T06:37:29;21.90;83.70
56046;DHT22;41913;51.030;3.706;2023-09-19T06:39:55;21.90;83.80
56046;DHT22;41913;51.030;3.706;2023-09-19T06:42:22;21.90;83.80
56046;DHT22;41913;51.030;3.706;2023-09-19T06:44:49;21.80;83.90
56046;DHT22;41913;51.030;3.706;2023-09-19T06:47:15;21.80;84.00
56046;DHT22;41913;51.030;3.706;2023-09-19T06:49:42;21.80;84.50
56046;DHT22;41913;51.030;3.706;2023-09-19T06:52:10;21.80;84.00
56046;DHT22;41913;51.030;3.706;2023-09-19T06:54:35;21.70;84.10
56046;DHT22;41913;51.030;3.706;2023-09-19T06:57:02;21.70;84.30
56046;DHT22;41913;51.030;3.706;2023-09-19T06:59:28;21.70;84.40
56046;DHT22;41913;51.030;3.706;2023-09-19T07:01:54;21.70;84.50
56046;DHT22;41913;51.030;3.706;2023-09-19T07:04:20;21.70;84.50
56046;DHT22;41913;51.030;3.706;2023-09-19T07:06:52;21.70;85.10
56046;DHT22;41913;51.030;3.706;2023-09-19T07:09:17;21.70;84.70
56046;DHT22;41913;51.030;3.706;2023-09-19T07:11:47;21.60;84.60
56046;DHT22;41913;51.030;3.706;2023-09-19T07:14:16;21.70;84.50
56046;DHT22;41913;51.030;3.706;2023-09-19T07:16:43;21.60;84.40
56046;DHT22;41913;51.030;3.706;2023-09-19T07:19:10;21.60;84.60
56046;DHT22;41913;51.030;3.706;2023-09-19T07:21:36;21.60;84.60
56046;DHT22;41913;51.030;3.706;2023-09-19T07:24:04;21.60;84.70
56046;DHT22;41913;51.030;3.706;2023-09-19T07:26:30;21.60;84.80
56046;DHT22;41913;51.030;3.706;2023-09-19T07:28:56;21.60;84.80
56046;DHT22;41913;51.030;3.706;2023-09-19T07:31:23;21.60;84.90
56046;DHT22;41913;51.030;3.706;2023-09-19T07:33:51;21.60;85.00
56046;DHT22;41913;51.030;3.706;2023-09-19T07:36:17;21.60;85.10
56046;DHT22;41913;51.030;3.706;2023-09-19T07:38:43;21.60;85.10
56046;DHT22;41913;51.030;3.706;2023-09-19T07:41:09;21.60;85.00
56046;DHT22;41913;51.030;3.706;2023-09-19T07:43:37;21.60;85.10
56046;DHT22;41913;51.030;3.706;2023-09-19T07:46:08;21.60;85.00
56046;DHT22;41913;51.030;3.706;2023-09-19T07:48:36;21.60;85.10
56046;DHT22;41913;51.030;3.706;2023-09-19T07:51:07;21.60;85.10
56046;DHT22;41913;51.030;3.706;2023-09-19T07:53:34;21.60;85.20
56046;DHT22;41913;51.030;3.706;2023-09-19T07:56:07;21.60;85.30
56046;DHT22;41913;51.030;3.706;2023-09-19T07:58:34;21.60;85.30
56046;DHT22;41913;51.030;3.706;2023-09-19T08:01:08;21.70;85.30
56046;DHT22;41913;51.030;3.706;2023-09-19T08:03:40;21.80;85.20
56046;DHT22;41913;51.030;3.706;2023-09-19T08:06:07;21.80;85.00
56046;DHT22;41913;51.030;3.706;2023-09-19T08:08:34;21.90;85.00
56046;DHT22;41913;51.030;3.706;2023-09-19T08:11:06;21.90;84.70
56046;DHT22;41913;51.030;3.706;2023-09-19T08:13:41;22.00;84.70
56046;DHT22;41913;51.030;3.706;2023-09-19T08:16:13;22.00;85.20
56046;DHT22;41913;51.030;3.706;2023-09-19T08:18:40;22.00;84.70
56046;DHT22;41913;51.030;3.706;2023-09-19T08:21:07;22.00;84.60
56046;DHT22;41913;51.030;3.706;2023-09-19T08:23:39;22.10;84.60
56046;DHT22;41913;51.030;3.706;2023-09-19T08:26:05;22.10;84.40
56046;DHT22;41913;51.030;3.706;2023-09-19T08:28:35;22.10;84.30
56046;DHT22;41913;51.030;3.706;2023-09-19T08:31:05;22.10;84.20
56046;DHT22;41913;51.030;3.706;2023-09-19T08:33:35;22.20;84.20
56046;DHT22;41913;51.030;3.706;2023-09-19T08:36:02;22.20;84.20
56046;DHT22;41913;51.030;3.706;2023-09-19T08:38:31;22.20;84.20
56046;DHT22;41913;51.030;3.706;2023-09-19T08:41:00;22.20;84.20
56046;DHT22;41913;51.030;3.706;2023-09-19T08:43:29;22.20;84.20
56046;DHT22;41913;51.030;3.706;2023-09-19T08:46:12;22.20;84.00
56046;DHT22;41913;51.030;3.706;2023-09-19T08:48:46;22.30;84.00
56046;DHT22;41913;51.030;3.706;2023-09-19T08:51:21;22.30;83.90
56046;DHT22;41913;51.030;3.706;2023-09-19T08:54:07;22.30;83.80
56046;DHT22;41913;51.030;3.706;2023-09-19T08:56:33;22.30;83.80
56046;DHT22;41913;51.030;3.706;2023-09-19T08:59:06;22.30;83.70
56046;DHT22;41913;51.030;3.706;2023-09-19T09:01:36;22.30;83.60
56046;DHT22;41913;51.030;3.706;2023-09-19T09:04:04;22.30;83.50
56046;DHT22;41913;51.030;3.706;2023-09-19T09:06:36;22.30;83.40
56046;DHT22;41913;51.030;3.706;2023-09-19T09:09:06;22.30;83.30
56046;DHT22;41913;51.030;3.706;2023-09-19T09:11:36;22.40;83.30
56046;DHT22;41913;51.030;3.706;2023-09-19T09:14:06;22.40;83.20
56046;DHT22;41913;51.030;3.706;2023-09-19T09:16:32;22.40;83.30
56046;DHT22;41913;51.030;3.706;2023-09-19T09:18:59;22.40;83.30
56046;DHT22;41913;51.030;3.706;2023-09-19T09:21:25;22.40;83.30
56046;DHT22;41913;51.030;3.706;2023-09-19T09:23:51;22.40;83.30
56046;DHT22;41913;51.030;3.706;2023-09-19T09:29:04;22.40;83.50
56046;DHT22;41913;51.030;3.706;2023-09-19T09:31:30;22.40;83.50
56046;DHT22;41913;51.030;3.706;2023-09-19T09:33:57;22.40;83.60
56046;DHT22;41913;51.030;3.706;2023-09-19T09:36:37;22.40;83.50
56046;DHT22;41913;51.030;3.706;2023-09-19T09:39:03;22.40;83.50
56046;DHT22;41913;51.030;3.706;2023-09-19T09:41:42;22.50;83.60
56046;DHT22;41913;51.030;3.706;2023-09-19T09:44:19;22.50;83.60
56046;DHT22;41913;51.030;3.706;2023-09-19T09:46:48;22.50;83.60
56046;DHT22;41913;51.030;3.706;2023-09-19T09:49:25;22.50;83.50
56046;DHT22;41913;51.030;3.706;2023-09-19T09:52:06;22.50;83.60
56046;DHT22;41913;51.030;3.706;2023-09-19T09:54:35;22.50;83.60
56046;DHT22;41913;51.030;3.706;2023-09-19T09:57:05;22.50;83.50
56046;DHT22;41913;51.030;3.706;2023-09-19T09:59:50;22.50;83.40
56046;DHT22;41913;51.030;3.706;2023-09-19T10:02:27;22.50;83.40
56046;DHT22;41913;51.030;3.706;2023-09-19T10:04:59;22.50;83.40
56046;DHT22;41913;51.030;3.706;2023-09-19T10:07:41;22.50;83.30
56046;DHT22;41913;51.030;3.706;2023-09-19T10:10:13;22.50;83.30
56046;DHT22;41913;51.030;3.706;2023-09-19T10:12:48;22.50;83.40
56046;DHT22;41913;51.030;3.706;2023-09-19T10:15:18;22.60;83.40
56046;DHT22;41913;51.030;3.706;2023-09-19T10:17:51;22.60;83.40
56046;DHT22;41913;51.030;3.706;2023-09-19T10:20:19;22.60;83.30
56046;DHT22;41913;51.030;3.706;2023-09-19T10:22:59;22.60;83.30
56046;DHT22;41913;51.030;3.706;2023-09-19T10:25:29;22.60;83.30
56046;DHT22;41913;51.030;3.706;2023-09-19T10:28:02;22.60;83.30
56046;DHT22;41913;51.030;3.706;2023-09-19T10:30:31;22.60;83.30
56046;DHT22;41913;51.030;3.706;2023-09-19T10:33:04;22.60;82.90
56046;DHT22;41913;51.030;3.706;2023-09-19T10:35:32;22.60;82.50
56046;DHT22;41913;51.030;3.706;2023-09-19T10:38:01;22.70;82.50
56046;DHT22;41913;51.030;3.706;2023-09-19T10:40:29;22.60;82.50
56046;DHT22;41913;51.030;3.706;2023-09-19T10:43:02;22.60;82.50
56046;DHT22;41913;51.030;3.706;2023-09-19T10:45:31;22.60;82.50
56046;DHT22;41913;51.030;3.706;2023-09-19T10:48:01;22.70;82.50
56046;DHT22;41913;51.030;3.706;2023-09-19T10:50:44;22.60;82.50
56046;DHT22;41913;51.030;3.706;2023-09-19T10:53:11;22.60;82.40
56046;DHT22;41913;51.030;3.706;2023-09-19T10:55:38;22.70;82.60
56046;DHT22;41913;51.030;3.706;2023-09-19T10:58:05;22.70;82.50
56046;DHT22;41913;51.030;3.706;2023-09-19T11:01:06;22.70;82.50
56046;DHT22;41913;51.030;3.706;2023-09-19T11:03:38;22.80;82.60
56046;DHT22;41913;51.030;3.706;2023-09-19T11:06:09;22.80;82.50
56046;DHT22;41913;51.030;3.706;2023-09-19T11:08:52;22.80;82.50
56046;DHT22;41913;51.030;3.706;2023-09-19T11:11:41;22.80;82.30
56046;DHT22;41913;51.030;3.706;2023-09-19T11:14:28;22.80;82.30
56046;DHT22;41913;51.030;3.706;2023-09-19T11:30:32;22.80;82.00
56046;DHT22;41913;51.030;3.706;2023-09-19T11:33:18;22.80;82.00
56046;DHT22;41913;51.030;3.706;2023-09-19T11:43:54;22.70;82.20
56046;DHT22;41913;51.030;3.706;2023-09-19T11:46:52;22.70;82.10
56046;DHT22;41913;51.030;3.706;2023-09-19T11:49:19;22.70;82.10
56046;DHT22;41913;51.030;3.706;2023-09-19T11:51:51;22.70;82.20
56046;DHT22;41913;51.030;3.706;2023-09-19T11:54:17;22.70;82.20
56046;DHT22;41913;51.030;3.706;2023-09-19T11:56:45;22.70;82.10
56046;DHT22;41913;51.030;3.706;2023-09-19T11:59:11;22.70;82.00
56046;DHT22;41913;51.030;3.706;2023-09-19T12:01:39;22.80;82.10
56046;DHT22;41913;51.030;3.706;2023-09-19T12:04:11;22.80;82.20
56046;DHT22;41913;51.030;3.706;2023-09-19T12:06:37;22.80;82.20
56046;DHT22;41913;51.030;3.706;2023-09-19T12:09:12;22.80;82.10
56046;DHT22;41913;51.030;3.706;2023-09-19T12:11:42;22.80;82.10
56046;DHT22;41913;51.030;3.706;2023-09-19T12:14:11;22.80;82.10
56046;DHT22;41913;51.030;3.706;2023-09-19T12:16:56;22.80;82.20
56046;DHT22;41913;51.030;3.706;2023-09-19T12:19:22;22.80;82.40
56046;DHT22;41913;51.030;3.706;2023-09-19T12:22:02;22.80;82.70
56046;DHT22;41913;51.030;3.706;2023-09-19T12:24:30;22.90;82.80
56046;DHT22;41913;51.030;3.706;2023-09-19T12:27:03;22.80;82.90
56046;DHT22;41913;51.030;3.706;2023-09-19T12:29:45;22.90;83.20
56046;DHT22;41913;51.030;3.706;2023-09-19T12:32:11;22.90;83.10
56046;DHT22;41913;51.030;3.706;2023-09-19T12:34:38;22.80;82.80
56046;DHT22;41913;51.030;3.706;2023-09-19T12:37:12;22.90;82.70
56046;DHT22;41913;51.030;3.706;2023-09-19T12:39:43;22.90;82.80
56046;DHT22;41913;51.030;3.706;2023-09-19T12:42:16;22.90;83.00
56046;DHT22;41913;51.030;3.706;2023-09-19T12:44:48;22.90;82.60
56046;DHT22;41913;51.030;3.706;2023-09-19T12:47:16;22.90;82.60
56046;DHT22;41913;51.030;3.706;2023-09-19T12:55:25;22.90;82.70
56046;DHT22;41913;51.030;3.706;2023-09-19T12:58:13;23.00;82.80
56046;DHT22;41913;51.030;3.706;2023-09-19T13:00:45;23.10;82.60
56046;DHT22;41913;51.030;3.706;2023-09-19T13:03:17;23.10;82.50
56046;DHT22;41913;51.030;3.706;2023-09-19T13:06:04;23.10;82.40
56046;DHT22;41913;51.030;3.706;2023-09-19T13:08:34;23.10;81.90
56046;DHT22;41913;51.030;3.706;2023-09-19T13:13:46;23.20;81.50
56046;DHT22;41913;51.030;3.706;2023-09-19T13:16:20;23.20;81.40
56046;DHT22;41913;51.030;3.706;2023-09-19T13:18:53;23.30;81.30
56046;DHT22;41913;51.030;3.706;2023-09-19T13:21:32;23.30;81.10
56046;DHT22;41913;51.030;3.706;2023-09-19T13:24:32;23.30;81.10
56046;DHT22;41913;51.030;3.706;2023-09-19T13:27:00;23.40;81.10
56046;DHT22;41913;51.030;3.706;2023-09-19T13:29:26;23.40;81.20
56046;DHT22;41913;51.030;3.706;2023-09-19T13:31:52;23.40;81.20
56046;DHT22;41913;51.030;3.706;2023-09-19T13:34:19;23.40;81.00
56046;DHT22;41913;51.030;3.706;2023-09-19T13:36:45;23.50;81.00
56046;DHT22;41913;51.030;3.706;2023-09-19T13:39:17;23.50;80.90
56046;DHT22;41913;51.030;3.706;2023-09-19T13:41:49;23.50;81.00
56046;DHT22;41913;51.030;3.706;2023-09-19T13:44:15;23.60;81.20
56046;DHT22;41913;51.030;3.706;2023-09-19T13:46:42;23.60;81.20
56046;DHT22;41913;51.030;3.706;2023-09-19T13:49:11;23.50;81.80
56046;DHT22;41913;51.030;3.706;2023-09-19T13:51:37;23.50;81.70
56046;DHT22;41913;51.030;3.706;2023-09-19T13:54:03;23.50;81.30
56046;DHT22;41913;51.030;3.706;2023-09-19T13:56:28;23.60;81.00
56046;DHT22;41913;51.030;3.706;2023-09-19T13:58:56;23.60;80.80
56046;DHT22;41913;51.030;3.706;2023-09-19T14:01:22;23.60;80.70
56046;DHT22;41913;51.030;3.706;2023-09-19T14:03:48;23.70;80.60
56046;DHT22;41913;51.030;3.706;2023-09-19T14:06:16;23.70;80.50
56046;DHT22;41913;51.030;3.706;2023-09-19T14:08:42;23.70;80.40
56046;DHT22;41913;51.030;3.706;2023-09-19T14:11:08;23.60;80.30
56046;DHT22;41913;51.030;3.706;2023-09-19T14:13:34;23.70;80.40
56046;DHT22;41913;51.030;3.706;2023-09-19T14:16:04;23.60;80.40
56046;DHT22;41913;51.030;3.706;2023-09-19T14:18:31;23.60;80.40
56046;DHT22;41913;51.030;3.706;2023-09-19T14:20:57;23.70;80.50
56046;DHT22;41913;51.030;3.706;2023-09-19T14:23:23;23.60;80.50
56046;DHT22;41913;51.030;3.706;2023-09-19T14:25:50;23.60;80.50
56046;DHT22;41913;51.030;3.706;2023-09-19T14:28:17;23.60;80.60
56046;DHT22;41913;51.030;3.706;2023-09-19T14:30:43;23.60;80.80
56046;DHT22;41913;51.030;3.706;2023-09-19T14:33:09;23.60;80.70
56046;DHT22;41913;51.030;3.706;2023-09-19T14:35:37;23.60;80.90
56046;DHT22;41913;51.030;3.706;2023-09-19T14:38:04;23.70;81.00
56046;DHT22;41913;51.030;3.706;2023-09-19T14:40:30;23.60;80.90
56046;DHT22;41913;51.030;3.706;2023-09-19T14:42:56;23.60;81.00
56046;DHT22;41913;51.030;3.706;2023-09-19T14:45:22;23.60;81.40
56046;DHT22;41913;51.030;3.706;2023-09-19T14:47:50;23.60;80.80
56046;DHT22;41913;51.030;3.706;2023-09-19T14:50:18;23.60;81.10
56046;DHT22;41913;51.030;3.706;2023-09-19T14:52:43;23.60;81.00
56046;DHT22;41913;51.030;3.706;2023-09-19T14:55:09;23.60;80.80
56046;DHT22;41913;51.030;3.706;2023-09-19T14:57:40;23.60;80.70
56046;DHT22;41913;51.030;3.706;2023-09-19T15:00:06;23.60;80.70
56046;DHT22;41913;51.030;3.706;2023-09-19T15:02:38;23.60;80.80
56046;DHT22;41913;51.030;3.706;2023-09-19T15:05:05;23.60;80.80
56046;DHT22;41913;51.030;3.706;2023-09-19T15:07:34;23.60;81.20
56046;DHT22;41913;51.030;3.706;2023-09-19T15:10:02;23.60;81.20
56046;DHT22;41913;51.030;3.706;2023-09-19T15:12:28;23.60;81.30
56046;DHT22;41913;51.030;3.706;2023-09-19T15:14:54;23.60;81.30
56046;DHT22;41913;51.030;3.706;2023-09-19T15:17:20;23.60;81.20
56046;DHT22;41913;51.030;3.706;2023-09-19T15:19:46;23.60;81.20
56046;DHT22;41913;51.030;3.706;2023-09-19T15:22:12;23.60;81.50
56046;DHT22;41913;51.030;3.706;2023-09-19T15:24:38;23.60;81.40
56046;DHT22;41913;51.030;3.706;2023-09-19T15:27:04;23.60;81.20
56046;DHT22;41913;51.030;3.706;2023-09-19T15:29:30;23.60;81.20
56046;DHT22;41913;51.030;3.706;2023-09-19T15:31:56;23.60;81.10
56046;DHT22;41913;51.030;3.706;2023-09-19T15:34:28;23.60;81.00
56046;DHT22;41913;51.030;3.706;2023-09-19T15:36:54;23.60;81.00
56046;DHT22;41913;51.030;3.706;2023-09-19T15:39:20;23.60;81.00
56046;DHT22;41913;51.030;3.706;2023-09-19T15:41:48;23.50;80.90
56046;DHT22;41913;51.030;3.706;2023-09-19T15:44:18;23.60;80.90
56046;DHT22;41913;51.030;3.706;2023-09-19T15:46:44;23.60;80.90
56046;DHT22;41913;51.030;3.706;2023-09-19T15:49:10;23.50;80.80
56046;DHT22;41913;51.030;3.706;2023-09-19T15:51:37;23.50;80.90
56046;DHT22;41913;51.030;3.706;2023-09-19T15:54:15;23.50;80.90
56046;DHT22;41913;51.030;3.706;2023-09-19T15:56:42;23.60;81.10
56046;DHT22;41913;51.030;3.706;2023-09-19T15:59:08;23.50;81.00
56046;DHT22;41913;51.030;3.706;2023-09-19T16:01:40;23.50;81.10
56046;DHT22;41913;51.030;3.706;2023-09-19T16:04:08;23.50;81.10
56046;DHT22;41913;51.030;3.706;2023-09-19T16:06:35;23.50;81.20
56046;DHT22;41913;51.030;3.706;2023-09-19T16:09:02;23.50;81.30
56046;DHT22;41913;51.030;3.706;2023-09-19T16:11:31;23.50;81.40
56046;DHT22;41913;51.030;3.706;2023-09-19T16:13:57;23.50;81.60
56046;DHT22;41913;51.030;3.706;2023-09-19T16:16:24;23.50;81.60
56046;DHT22;41913;51.030;3.706;2023-09-19T16:18:52;23.50;81.70
56046;DHT22;41913;51.030;3.706;2023-09-19T16:21:20;23.50;81.90
56046;DHT22;41913;51.030;3.706;2023-09-19T16:23:47;23.50;82.00
56046;DHT22;41913;51.030;3.706;2023-09-19T16:26:13;23.50;82.10
56046;DHT22;41913;51.030;3.706;2023-09-19T16:28:40;23.50;82.30
56046;DHT22;41913;51.030;3.706;2023-09-19T16:31:07;23.50;82.40
56046;DHT22;41913;51.030;3.706;2023-09-19T16:33:34;23.50;82.60
56046;DHT22;41913;51.030;3.706;2023-09-19T16:36:02;23.50;82.80
56046;DHT22;41913;51.030;3.706;2023-09-19T16:38:28;23.50;83.00